Agana Heights, GU

11:48 AM ChST on December 27, 2014 (GMT +1000)
Maite | Change Station
CLOSE
Current Station
Personal Weather Station
Location: Maite, GU
Elevation: 140 ft
Nearby Weather Stations

Elev 140 ft 13.48 °N, 144.76 °E | Updated 4 seconds ago

Scattered Clouds
Scattered Clouds
85.8 °F
Feels Like 93 °F
N
10.0
Wind Variable Wind from ESE
Gusts 22.0 mph

Today
High -- | Low -- °F
--% Chance of Precip.
Yesterday
High -- | Low -- °F
Precip. -- in
6:41 AM 6:01 PM
Waxing Crescent, 31% visible
Pressure 29.86 in
Visibility 10.0 miles
Clouds Scattered Clouds 2900 ft
Heat Index 93 °F
Dew Point 74 °F
Humidity 67%
Rainfall 0.00 in
Snow Depth Not available.
UV 7.5 out of 12
Pollen Not available.
Air Quality Not available.
Flu Activity Not available.
METAR PGUM 270054Z 06019G23KT 10SM SCT029 31/22 A2989 RMK AO2 SLP112 T03110222

More Conditions Fewer Conditions

Pressure 29.86 in
Visibility 10.0 miles
Clouds Scattered Clouds 2900 ft
Heat Index 93 °F
Dew Point 74 °F
Humidity 67%
Rainfall 0.00 in
Snow Depth Not available.
UV 7.5 out of 12
Pollen Not available.
Air Quality Not available.
Flu Activity Not available.
METAR PGUM 270054Z 06019G23KT 10SM SCT029 31/22 A2989 RMK AO2 SLP112 T03110222

More Conditions Fewer Conditions

10-Day Weather Forecast

Almanac

Astronomy

Dec. 27, 2014 Rise Set
Actual Time
Civil Twilight
Nautical Twilight
Astronomical Twilight
Moon
Length of Visible Light
Length of Day
Tomorrow will be .
, % of the Moon is Illuminated

Today's Extremes

State Highs State Lows

Community

WunderPhotos

Upload Photos

1,780,804 photos uploaded!

WunderBlogs® & News

Nearby

Air Quality

  Air Quality AQ Index Pollutant
Not available.

Snow Depth

Station Depth Elevation

Earthquake Activity

City Distance Mag. Time & Date
Minimum magnitude displayed is 2.5.

Coastal Water Temperatures

Place Temperature

Nearby Weather Stations